Time;durP1;ratioP1;P1;durP2;ratioP2;P2;SDS_P1;SDS_P2;PMS_P1;PMS_P2;Temp;Humidity;BMP_temperature;BMP_pressure;BME280_temperature;BME280_humidity;BME280_pressure;Samples;Min_cycle;Max_cycle;Signal;HPM_P1;HPM_P2
2022/08/17 00:00:13;;;;;;;8.23;5.80;;;;;;;;;;5109065;28;20118;-57
2022/08/17 00:03:16;;;;;;;13.68;6.45;;;;;;;;;;5109852;28;20043;-55
2022/08/17 00:05:44;;;;;;;8.93;5.43;;;;;;;;;;5026969;28;20045;-57
2022/08/17 00:08:11;;;;;;;8.90;4.35;;;;;;;;;;5094283;28;20043;-56
2022/08/17 00:10:37;;;;;;;13.43;5.97;;;;;;;;;;5109524;28;20039;-56
2022/08/17 00:13:06;;;;;;;6.40;4.95;;;;;;;;;;5109888;28;20632;-56
2022/08/17 00:15:31;;;;;;;18.10;7.40;;;;;;;;;;5089277;28;20040;-57
2022/08/17 00:17:57;;;;;;;18.45;5.00;;;;;;;;;;5109684;28;20470;-57
2022/08/17 00:20:22;;;;;;;10.35;5.35;;;;;;;;;;5109460;28;20522;-55
2022/08/17 00:22:47;;;;;;;20.25;6.65;;;;;;;;;;5108612;28;20052;-55
2022/08/17 00:25:16;;;;;;;14.65;6.75;;;;;;;;;;5109714;28;20108;-58
2022/08/17 00:27:41;;;;;;;9.82;4.22;;;;;;;;;;5108944;28;20043;-57
2022/08/17 00:30:09;;;;;;;9.60;5.57;;;;;;;;;;5109526;28;20043;-57
2022/08/17 00:32:41;;;;;;;26.48;6.50;;;;;;;;;;5109334;28;20044;-55
2022/08/17 00:35:07;;;;;;;10.95;4.97;;;;;;;;;;5108399;28;20090;-56
2022/08/17 00:37:32;;;;;;;14.57;5.53;;;;;;;;;;5109201;28;20110;-57
2022/08/17 00:39:58;;;;;;;9.43;4.90;;;;;;;;;;5108867;28;20043;-57
2022/08/17 00:42:23;;;;;;;11.80;7.18;;;;;;;;;;5109254;28;20058;-56
2022/08/17 00:44:48;;;;;;;14.90;6.75;;;;;;;;;;5107819;28;20051;-56
2022/08/17 00:47:14;;;;;;;19.30;6.72;;;;;;;;;;5107427;28;20047;-57
2022/08/17 00:49:39;;;;;;;13.27;6.50;;;;;;;;;;5109491;28;20043;-56
2022/08/17 00:52:07;;;;;;;9.10;5.38;;;;;;;;;;5107886;28;20415;-57
2022/08/17 00:54:35;;;;;;;14.07;6.25;;;;;;;;;;5109031;28;20537;-56
2022/08/17 00:57:05;;;;;;;12.35;5.40;;;;;;;;;;5106883;28;20042;-56
2022/08/17 00:59:34;;;;;;;13.52;5.95;;;;;;;;;;5108059;28;20039;-55
2022/08/17 01:01:59;;;;;;;9.90;6.75;;;;;;;;;;5108065;28;20086;-57
2022/08/17 01:04:26;;;;;;;8.07;5.65;;;;;;;;;;5108891;28;20479;-57
2022/08/17 01:06:52;;;;;;;11.40;5.95;;;;;;;;;;5104733;28;20083;-57
2022/08/17 01:09:17;;;;;;;11.38;6.60;;;;;;;;;;5108015;28;20062;-57
2022/08/17 01:11:44;;;;;;;12.45;5.53;;;;;;;;;;5106899;28;20134;-57
2022/08/17 01:14:09;;;;;;;17.08;5.97;;;;;;;;;;5107159;28;21887;-57
2022/08/17 01:16:36;;;;;;;11.88;6.35;;;;;;;;;;5107994;28;20138;-57
2022/08/17 01:19:08;;;;;;;15.43;6.20;;;;;;;;;;5107986;28;20035;-57
2022/08/17 01:21:56;;;;;;;15.50;5.45;;;;;;;;;;5107166;28;20061;-55
2022/08/17 01:24:22;;;;;;;9.55;4.75;;;;;;;;;;5107509;28;20171;-56
2022/08/17 01:26:47;;;;;;;7.30;5.43;;;;;;;;;;5108365;28;20051;-57
2022/08/17 01:29:12;;;;;;;11.63;5.30;;;;;;;;;;5108189;28;20185;-56
2022/08/17 01:31:49;;;;;;;10.57;5.03;;;;;;;;;;5107085;28;20130;-57
2022/08/17 01:34:16;;;;;;;7.50;5.18;;;;;;;;;;5106333;28;20083;-57
2022/08/17 01:36:43;;;;;;;6.28;4.60;;;;;;;;;;5107572;28;20639;-57
2022/08/17 01:39:14;;;;;;;12.70;4.85;;;;;;;;;;5105409;28;20063;-56
2022/08/17 01:41:40;;;;;;;6.68;4.95;;;;;;;;;;5108066;28;20056;-56
2022/08/17 01:44:06;;;;;;;7.88;5.63;;;;;;;;;;5107946;28;20070;-57
2022/08/17 01:46:34;;;;;;;9.68;5.40;;;;;;;;;;5105749;28;20047;-56
2022/08/17 01:49:00;;;;;;;11.48;6.78;;;;;;;;;;5107121;28;20040;-57
2022/08/17 01:51:30;;;;;;;9.57;5.60;;;;;;;;;;5107912;28;20070;-55
2022/08/17 01:53:57;;;;;;;11.35;5.45;;;;;;;;;;5107925;28;20040;-57
2022/08/17 01:56:23;;;;;;;10.70;5.07;;;;;;;;;;5107865;28;20505;-57
2022/08/17 01:58:48;;;;;;;7.75;5.13;;;;;;;;;;5105663;28;20032;-57
2022/08/17 02:01:15;;;;;;;8.20;6.80;;;;;;;;;;5107027;28;20054;-55
2022/08/17 02:03:40;;;;;;;12.18;5.57;;;;;;;;;;5108097;28;20514;-56
2022/08/17 02:06:06;;;;;;;18.80;5.57;;;;;;;;;;5104647;28;20061;-57
2022/08/17 02:08:34;;;;;;;11.77;5.80;;;;;;;;;;5107704;28;20142;-57
2022/08/17 02:11:00;;;;;;;6.97;4.63;;;;;;;;;;5107509;28;20063;-56
2022/08/17 02:13:28;;;;;;;10.80;5.78;;;;;;;;;;5107024;28;20036;-56
2022/08/17 02:15:54;;;;;;;5.72;4.82;;;;;;;;;;5107252;28;20048;-57
2022/08/17 02:18:19;;;;;;;30.40;7.47;;;;;;;;;;5105428;28;20150;-57
2022/08/17 02:20:44;;;;;;;10.98;6.57;;;;;;;;;;5107779;28;20047;-57
2022/08/17 02:23:11;;;;;;;14.95;5.80;;;;;;;;;;5104763;28;20043;-57
2022/08/17 02:25:37;;;;;;;16.48;6.72;;;;;;;;;;5106975;28;20137;-58
2022/08/17 02:28:03;;;;;;;7.55;5.53;;;;;;;;;;5105102;28;20108;-57
2022/08/17 02:30:28;;;;;;;9.20;5.43;;;;;;;;;;5106982;28;20445;-57
2022/08/17 02:32:54;;;;;;;7.07;6.30;;;;;;;;;;5105850;28;20051;-57
2022/08/17 02:35:21;;;;;;;8.60;5.85;;;;;;;;;;5106529;28;20104;-57
2022/08/17 02:37:47;;;;;;;12.45;4.30;;;;;;;;;;5105384;28;20688;-57
2022/08/17 02:40:12;;;;;;;11.93;4.13;;;;;;;;;;5106267;28;20035;-56
2022/08/17 02:42:39;;;;;;;8.85;3.58;;;;;;;;;;5105736;28;20043;-58
2022/08/17 02:45:06;;;;;;;6.22;4.25;;;;;;;;;;5106715;28;20047;-58
2022/08/17 02:47:32;;;;;;;7.95;4.45;;;;;;;;;;5105648;28;20082;-55
2022/08/17 02:49:57;;;;;;;8.57;4.53;;;;;;;;;;5103587;28;20047;-57
2022/08/17 02:52:24;;;;;;;7.97;4.90;;;;;;;;;;5103661;28;20040;-56
2022/08/17 02:54:49;;;;;;;6.20;3.90;;;;;;;;;;5106049;28;20408;-56
2022/08/17 02:57:14;;;;;;;7.82;6.15;;;;;;;;;;5106655;28;20454;-57
2022/08/17 02:59:40;;;;;;;7.05;5.22;;;;;;;;;;5107497;28;20039;-58
2022/08/17 03:02:06;;;;;;;9.20;4.68;;;;;;;;;;5106539;28;20425;-57
2022/08/17 03:04:31;;;;;;;6.15;3.97;;;;;;;;;;5105770;28;20044;-57
2022/08/17 03:06:57;;;;;;;15.05;4.45;;;;;;;;;;5104844;28;20043;-55
2022/08/17 03:09:22;;;;;;;8.70;3.90;;;;;;;;;;5104481;28;20157;-57
2022/08/17 03:11:49;;;;;;;9.38;5.43;;;;;;;;;;5103618;28;20055;-56
2022/08/17 03:14:15;;;;;;;9.80;4.97;;;;;;;;;;5104989;28;20109;-55
2022/08/17 03:16:41;;;;;;;8.57;5.13;;;;;;;;;;5106033;28;20054;-57
2022/08/17 03:19:06;;;;;;;13.35;4.32;;;;;;;;;;5104551;28;20118;-57
2022/08/17 03:21:31;;;;;;;11.10;5.35;;;;;;;;;;5082461;28;20044;-58
2022/08/17 03:23:57;;;;;;;13.35;5.30;;;;;;;;;;5104052;28;20043;-57
2022/08/17 03:26:22;;;;;;;5.93;4.65;;;;;;;;;;5105693;28;20139;-57
2022/08/17 03:28:47;;;;;;;8.18;5.43;;;;;;;;;;5105791;28;20075;-57
2022/08/17 03:31:13;;;;;;;7.78;3.75;;;;;;;;;;5105161;28;20122;-57
2022/08/17 03:33:38;;;;;;;7.95;3.42;;;;;;;;;;5105245;28;20040;-57
2022/08/17 03:36:07;;;;;;;8.07;3.80;;;;;;;;;;5106369;28;20031;-56
2022/08/17 03:38:33;;;;;;;5.97;3.83;;;;;;;;;;5104528;28;20118;-55
2022/08/17 03:40:58;;;;;;;6.32;4.22;;;;;;;;;;5105310;28;20154;-54
2022/08/17 03:43:24;;;;;;;7.22;3.08;;;;;;;;;;5106156;28;20074;-55
2022/08/17 03:57:09;;;;;;;7.70;4.60;;;;;;;;;;5108448;28;20054;-56
2022/08/17 03:59:35;;;;;;;5.70;3.22;;;;;;;;;;5108943;28;20085;-56
2022/08/17 04:02:11;;;;;;;11.45;3.45;;;;;;;;;;5106980;28;20055;-56
2022/08/17 04:04:37;;;;;;;10.35;5.68;;;;;;;;;;5110369;27;20044;-58
2022/08/17 04:07:03;;;;;;;4.45;3.38;;;;;;;;;;5106501;28;20039;-56
2022/08/17 04:09:28;;;;;;;11.30;7.00;;;;;;;;;;5108710;28;20040;-57
2022/08/17 04:11:53;;;;;;;13.02;3.88;;;;;;;;;;5108698;28;20508;-56
2022/08/17 04:14:19;;;;;;;5.57;4.38;;;;;;;;;;5108928;28;20430;-56
2022/08/17 04:16:44;;;;;;;9.40;3.63;;;;;;;;;;5108725;28;20047;-56
2022/08/17 04:19:10;;;;;;;9.02;3.00;;;;;;;;;;5108752;28;20040;-57
2022/08/17 04:21:35;;;;;;;6.90;3.90;;;;;;;;;;5108705;28;20070;-56
2022/08/17 04:24:00;;;;;;;7.18;4.45;;;;;;;;;;5109158;28;20494;-57
2022/08/17 04:26:27;;;;;;;11.57;4.03;;;;;;;;;;5108635;28;20411;-54
2022/08/17 04:28:52;;;;;;;6.15;2.88;;;;;;;;;;5108980;28;20048;-56
2022/08/17 04:31:17;;;;;;;11.45;3.95;;;;;;;;;;5107601;28;20435;-57
2022/08/17 04:33:43;;;;;;;4.05;2.45;;;;;;;;;;5107751;28;20040;-56
2022/08/17 04:36:09;;;;;;;6.68;3.47;;;;;;;;;;5108234;28;20051;-57
2022/08/17 04:38:36;;;;;;;6.80;4.15;;;;;;;;;;5107961;28;20333;-56
2022/08/17 04:43:46;;;;;;;8.73;6.07;;;;;;;;;;5109214;28;20051;-57
2022/08/17 04:46:13;;;;;;;11.52;4.72;;;;;;;;;;5107291;28;20047;-57
2022/08/17 04:48:43;;;;;;;7.32;5.00;;;;;;;;;;5108154;28;20383;-59
2022/08/17 04:51:18;;;;;;;8.40;4.03;;;;;;;;;;5108929;28;20078;-57
2022/08/17 04:53:45;;;;;;;18.08;4.72;;;;;;;;;;5107563;28;20042;-56
2022/08/17 04:56:11;;;;;;;15.60;3.95;;;;;;;;;;5107306;28;20096;-56
2022/08/17 04:58:37;;;;;;;9.68;5.07;;;;;;;;;;5108016;28;20096;-57
2022/08/17 05:01:03;;;;;;;5.93;3.15;;;;;;;;;;5107267;28;20382;-57
2022/08/17 05:03:28;;;;;;;10.32;4.45;;;;;;;;;;5108308;28;20051;-57
2022/08/17 05:05:53;;;;;;;5.22;3.80;;;;;;;;;;5108368;28;20497;-56
2022/08/17 05:08:19;;;;;;;11.40;5.40;;;;;;;;;;5108398;28;20036;-57
2022/08/17 05:10:45;;;;;;;14.32;5.25;;;;;;;;;;5106705;28;20044;-58
2022/08/17 05:13:14;;;;;;;14.52;6.40;;;;;;;;;;5104956;28;20054;-57
2022/08/17 05:15:40;;;;;;;7.53;4.60;;;;;;;;;;5106839;28;20050;-57
2022/08/17 05:18:06;;;;;;;14.88;4.93;;;;;;;;;;5107161;28;20858;-58
2022/08/17 05:20:32;;;;;;;6.65;4.07;;;;;;;;;;5107301;28;20051;-57
2022/08/17 05:22:59;;;;;;;7.15;4.80;;;;;;;;;;5106158;28;20139;-57
2022/08/17 05:25:27;;;;;;;14.50;5.03;;;;;;;;;;5104223;28;20511;-57
2022/08/17 05:27:53;;;;;;;8.38;4.00;;;;;;;;;;5104271;28;20067;-57
2022/08/17 05:30:18;;;;;;;9.30;5.45;;;;;;;;;;5105873;28;20048;-58
2022/08/17 05:32:51;;;;;;;8.27;5.32;;;;;;;;;;5106066;28;20101;-56
2022/08/17 05:35:16;;;;;;;9.68;4.43;;;;;;;;;;5104177;28;20035;-57
2022/08/17 05:37:42;;;;;;;15.70;4.43;;;;;;;;;;5106193;28;20386;-56
2022/08/17 05:40:08;;;;;;;10.30;5.15;;;;;;;;;;5107109;28;20513;-54
2022/08/17 05:42:33;;;;;;;10.70;6.03;;;;;;;;;;5106584;28;20100;-57
2022/08/17 05:44:59;;;;;;;6.22;4.55;;;;;;;;;;5107140;28;20051;-57
2022/08/17 05:47:25;;;;;;;7.00;4.43;;;;;;;;;;5106612;28;20148;-57
2022/08/17 05:49:50;;;;;;;7.18;4.25;;;;;;;;;;5105132;27;20551;-57
2022/08/17 05:52:19;;;;;;;21.88;7.97;;;;;;;;;;5105857;28;20102;-57
2022/08/17 05:54:44;;;;;;;46.75;29.27;;;;;;;;;;5107247;28;20111;-57
2022/08/17 05:57:25;;;;;;;63.58;39.22;;;;;;;;;;5105955;28;20137;-57
2022/08/17 06:00:00;;;;;;;16.67;11.25;;;;;;;;;;5107402;28;20104;-57
2022/08/17 06:02:25;;;;;;;8.82;4.57;;;;;;;;;;5105752;28;20771;-57
2022/08/17 06:04:51;;;;;;;15.02;5.00;;;;;;;;;;5107290;28;20048;-57
2022/08/17 06:07:20;;;;;;;16.33;4.80;;;;;;;;;;5106764;28;20051;-57
2022/08/17 06:09:45;;;;;;;8.32;5.22;;;;;;;;;;5106797;28;20055;-58
2022/08/17 06:12:29;;;;;;;20.58;6.32;;;;;;;;;;5104157;28;20036;-58
2022/08/17 06:14:56;;;;;;;24.38;5.68;;;;;;;;;;5103609;28;20069;-58
2022/08/17 06:17:23;;;;;;;14.50;4.55;;;;;;;;;;5105261;28;20112;-59
2022/08/17 06:19:53;;;;;;;7.95;4.47;;;;;;;;;;5106510;28;20035;-58
2022/08/17 06:22:20;;;;;;;9.32;5.00;;;;;;;;;;5105645;28;20146;-58
2022/08/17 06:24:52;;;;;;;8.52;5.50;;;;;;;;;;5099548;28;20056;-58
2022/08/17 06:27:17;;;;;;;13.75;4.82;;;;;;;;;;5104102;28;20098;-58
2022/08/17 06:29:48;;;;;;;6.85;4.50;;;;;;;;;;5106837;28;20098;-58
2022/08/17 06:32:15;;;;;;;17.25;4.32;;;;;;;;;;5103823;28;20047;-58
2022/08/17 06:34:41;;;;;;;6.28;4.60;;;;;;;;;;5101503;28;20069;-58
2022/08/17 06:37:10;;;;;;;18.85;4.22;;;;;;;;;;5102101;28;20040;-58
2022/08/17 06:39:46;;;;;;;20.95;8.73;;;;;;;;;;5103902;28;20032;-58
2022/08/17 06:42:24;;;;;;;16.25;5.63;;;;;;;;;;5103171;28;20049;-58
2022/08/17 06:44:53;;;;;;;15.07;5.88;;;;;;;;;;5101678;28;20456;-59
2022/08/17 06:47:32;;;;;;;11.27;4.63;;;;;;;;;;5102923;28;20055;-58
2022/08/17 06:50:08;;;;;;;10.20;6.50;;;;;;;;;;5106142;28;20055;-60
2022/08/17 06:52:40;;;;;;;13.65;5.63;;;;;;;;;;5105207;28;20048;-60
2022/08/17 06:55:11;;;;;;;33.50;29.33;;;;;;;;;;5106474;28;20044;-60
2022/08/17 06:57:37;;;;;;;24.05;18.38;;;;;;;;;;5106050;28;20115;-59
2022/08/17 07:00:13;;;;;;;11.40;6.22;;;;;;;;;;5104855;28;20035;-60
2022/08/17 07:02:57;;;;;;;10.13;4.68;;;;;;;;;;5104497;28;20085;-59
2022/08/17 07:05:30;;;;;;;7.13;4.68;;;;;;;;;;5105156;28;20052;-60
2022/08/17 07:08:11;;;;;;;8.98;3.90;;;;;;;;;;5106005;28;20046;-59
2022/08/17 07:10:36;;;;;;;;;;;;;;;;;;5104233;28;20532;-60
2022/08/17 07:13:12;;;;;;;12.82;3.63;;;;;;;;;;5106002;28;19916;-60
2022/08/17 07:15:41;;;;;;;7.20;3.08;;;;;;;;;;5103625;28;20066;-60
2022/08/17 07:18:06;;;;;;;6.00;2.13;;;;;;;;;;5103988;28;20096;-60
2022/08/17 07:20:33;;;;;;;3.88;2.08;;;;;;;;;;5106800;28;20498;-60
2022/08/17 07:23:04;;;;;;;11.45;3.13;;;;;;;;;;5101570;28;20048;-60
2022/08/17 07:25:30;;;;;;;3.40;1.95;;;;;;;;;;5105971;28;20153;-60
2022/08/17 07:27:59;;;;;;;2.95;2.05;;;;;;;;;;5106562;28;20113;-60
2022/08/17 07:30:32;;;;;;;4.47;1.60;;;;;;;;;;5108843;28;20052;-60
2022/08/17 07:32:58;;;;;;;4.97;2.78;;;;;;;;;;5109192;28;20055;-60
2022/08/17 07:35:36;;;;;;;15.60;2.78;;;;;;;;;;5110023;27;20066;-60
2022/08/17 07:38:13;;;;;;;14.93;4.25;;;;;;;;;;5109420;28;20465;-60
2022/08/17 07:40:59;;;;;;;3.78;1.70;;;;;;;;;;5108495;28;20047;-59
2022/08/17 07:43:25;;;;;;;8.00;2.67;;;;;;;;;;5107544;28;20130;-61
2022/08/17 07:48:51;;;;;;;8.93;2.70;;;;;;;;;;5104322;27;20047;-61
2022/08/17 07:51:26;;;;;;;4.40;2.13;;;;;;;;;;5109672;28;20059;-62
2022/08/17 07:53:53;;;;;;;11.10;2.85;;;;;;;;;;5109815;28;20040;-61
2022/08/17 07:56:48;;;;;;;4.45;1.75;;;;;;;;;;5107821;28;20028;-61
2022/08/17 07:59:13;;;;;;;9.52;2.00;;;;;;;;;;5050776;28;20063;-61
2022/08/17 08:01:39;;;;;;;7.53;2.35;;;;;;;;;;5108056;28;20036;-62
2022/08/17 08:04:16;;;;;;;3.85;1.08;;;;;;;;;;5106235;28;20529;-63
2022/08/17 08:06:47;;;;;;;11.25;2.88;;;;;;;;;;5107922;28;20071;-63
2022/08/17 08:09:27;;;;;;;9.48;2.25;;;;;;;;;;5108292;28;20050;-63
2022/08/17 08:11:52;;;;;;;4.95;1.00;;;;;;;;;;5108841;28;20055;-63
2022/08/17 08:14:24;;;;;;;8.80;2.38;;;;;;;;;;5108294;28;20043;-62
2022/08/17 08:16:57;;;;;;;8.18;2.97;;;;;;;;;;5107617;28;20032;-62
2022/08/17 08:19:24;;;;;;;8.20;2.33;;;;;;;;;;5109130;28;20435;-62
2022/08/17 08:21:59;;;;;;;12.45;2.65;;;;;;;;;;5109034;28;20043;-62
2022/08/17 08:24:30;;;;;;;6.70;2.97;;;;;;;;;;5106754;28;20047;-62
2022/08/17 08:27:00;;;;;;;2.90;1.08;;;;;;;;;;5107018;28;20092;-62
2022/08/17 08:29:28;;;;;;;2.53;1.08;;;;;;;;;;5106450;28;20051;-53
2022/08/17 08:32:08;;;;;;;24.75;4.20;;;;;;;;;;5107631;28;20419;-60
2022/08/17 08:34:54;;;;;;;18.15;3.53;;;;;;;;;;5108256;28;20040;-64
2022/08/17 08:37:32;;;;;;;9.10;1.85;;;;;;;;;;5055055;28;20043;-52
2022/08/17 08:40:07;;;;;;;8.98;2.22;;;;;;;;;;5105537;28;20426;-62
2022/08/17 08:42:51;;;;;;;1.95;1.58;;;;;;;;;;5103761;28;20126;-53
2022/08/17 08:45:37;;;;;;;2.00;0.90;;;;;;;;;;5106057;28;20131;-59
2022/08/17 08:48:29;;;;;;;11.80;2.85;;;;;;;;;;5104146;28;20055;-60
2022/08/17 08:51:01;;;;;;;9.45;3.35;;;;;;;;;;5106661;28;20055;-61
2022/08/17 08:53:45;;;;;;;3.85;2.40;;;;;;;;;;5109023;28;20058;-61
2022/08/17 08:56:15;;;;;;;4.07;1.95;;;;;;;;;;5104868;28;20169;-60
2022/08/17 08:58:51;;;;;;;2.83;1.85;;;;;;;;;;5106591;27;20499;-61
2022/08/17 09:01:29;;;;;;;2.63;1.70;;;;;;;;;;5108118;28;20479;-61
2022/08/17 09:04:02;;;;;;;4.90;1.67;;;;;;;;;;5108658;28;20043;-61
2022/08/17 09:06:38;;;;;;;3.05;1.35;;;;;;;;;;5108782;28;20051;-61
2022/08/17 09:09:11;;;;;;;6.88;2.03;;;;;;;;;;5107779;28;20046;-61
2022/08/17 09:11:46;;;;;;;29.05;6.60;;;;;;;;;;5104373;27;20047;-61
2022/08/17 09:14:11;;;;;;;18.20;3.95;;;;;;;;;;5106960;28;20036;-64
2022/08/17 09:16:43;;;;;;;6.10;2.47;;;;;;;;;;5107469;28;20043;-58
2022/08/17 09:19:10;;;;;;;11.85;1.80;;;;;;;;;;5107631;28;20123;-58
2022/08/17 09:21:42;;;;;;;2.33;1.85;;;;;;;;;;5106550;28;20498;-58
2022/08/17 09:24:16;;;;;;;23.23;2.97;;;;;;;;;;5106702;28;20051;-58
2022/08/17 09:26:48;;;;;;;6.38;2.50;;;;;;;;;;5106206;28;20048;-58
2022/08/17 09:29:14;;;;;;;5.05;2.63;;;;;;;;;;5106728;28;20046;-58
2022/08/17 09:31:48;;;;;;;3.72;1.63;;;;;;;;;;5105229;28;20039;-58
2022/08/17 09:34:15;;;;;;;4.43;1.88;;;;;;;;;;5106577;28;20044;-60
2022/08/17 09:36:50;;;;;;;5.28;2.92;;;;;;;;;;5105815;28;20035;-59
2022/08/17 09:39:18;;;;;;;6.68;2.25;;;;;;;;;;5106589;28;20031;-59
2022/08/17 09:41:44;;;;;;;12.93;3.33;;;;;;;;;;5106748;28;20056;-59
2022/08/17 09:44:12;;;;;;;8.32;2.72;;;;;;;;;;5106695;28;20047;-59
2022/08/17 09:46:49;;;;;;;8.07;1.77;;;;;;;;;;5106879;28;20100;-59
2022/08/17 09:49:24;;;;;;;34.10;9.32;;;;;;;;;;5105593;28;20051;-59
2022/08/17 09:51:55;;;;;;;5.10;2.30;;;;;;;;;;5106883;28;20063;-59
2022/08/17 09:54:21;;;;;;;3.65;0.75;;;;;;;;;;5105497;28;20044;-59
2022/08/17 09:56:46;;;;;;;8.05;1.73;;;;;;;;;;5107011;28;20059;-59
2022/08/17 09:59:31;;;;;;;4.70;2.13;;;;;;;;;;5106212;28;20046;-59
2022/08/17 10:02:08;;;;;;;5.20;3.40;;;;;;;;;;5103905;28;20332;-59
2022/08/17 10:04:57;;;;;;;6.47;2.72;;;;;;;;;;5105911;28;20388;-59
2022/08/17 10:07:29;;;;;;;6.30;2.80;;;;;;;;;;5091809;28;20080;-59
2022/08/17 10:10:14;;;;;;;4.18;1.70;;;;;;;;;;5103038;28;20051;-59
2022/08/17 10:12:53;;;;;;;8.95;3.38;;;;;;;;;;5105578;28;20052;-59
2022/08/17 10:15:35;;;;;;;6.47;2.85;;;;;;;;;;5107101;28;20051;-59
2022/08/17 10:18:02;;;;;;;10.55;2.20;;;;;;;;;;5106385;28;20126;-59
2022/08/17 10:20:28;;;;;;;13.02;3.45;;;;;;;;;;5105936;28;20044;-59
2022/08/17 10:28:39;;;;;;;5.05;3.15;;;;;;;;;;5107071;28;20059;-60
2022/08/17 10:31:06;;;;;;;4.30;2.42;;;;;;;;;;5106464;28;21037;-59
2022/08/17 10:33:38;;;;;;;8.93;2.53;;;;;;;;;;5105208;28;20090;-60
2022/08/17 10:36:20;;;;;;;13.90;4.18;;;;;;;;;;5107268;28;20044;-59
2022/08/17 10:38:46;;;;;;;5.28;2.92;;;;;;;;;;5107046;28;20610;-59
2022/08/17 10:41:44;;;;;;;5.80;3.50;;;;;;;;;;5106091;28;20031;-59
2022/08/17 10:44:22;;;;;;;17.60;3.50;;;;;;;;;;5066170;28;20059;-60
2022/08/17 10:47:04;;;;;;;8.65;3.15;;;;;;;;;;5106801;28;20063;-59
2022/08/17 10:49:34;;;;;;;7.90;3.25;;;;;;;;;;5105172;28;20118;-60
2022/08/17 10:52:03;;;;;;;2.67;2.10;;;;;;;;;;5105693;28;20055;-59
2022/08/17 10:54:31;;;;;;;5.90;3.10;;;;;;;;;;5104835;28;20046;-59
2022/08/17 10:56:56;;;;;;;10.32;3.45;;;;;;;;;;5105463;28;20136;-60
2022/08/17 10:59:34;;;;;;;5.68;2.10;;;;;;;;;;5105074;28;20047;-59
2022/08/17 11:02:16;;;;;;;14.93;3.78;;;;;;;;;;5105892;28;20455;-59
2022/08/17 11:04:41;;;;;;;4.78;2.13;;;;;;;;;;5105480;28;20177;-59
2022/08/17 11:07:25;;;;;;;17.65;3.28;;;;;;;;;;5106593;28;20411;-60
2022/08/17 11:09:57;;;;;;;7.25;3.25;;;;;;;;;;5104393;28;20040;-60
2022/08/17 11:12:38;;;;;;;3.65;2.85;;;;;;;;;;5105083;28;20388;-59
2022/08/17 11:15:09;;;;;;;2.88;2.25;;;;;;;;;;5105085;28;20093;-59
2022/08/17 11:17:53;;;;;;;7.97;3.58;;;;;;;;;;5105612;28;20123;-60
2022/08/17 11:20:19;;;;;;;7.68;4.05;;;;;;;;;;5104432;28;20498;-59
2022/08/17 11:23:14;;;;;;;9.55;3.80;;;;;;;;;;5105537;28;20043;-59
2022/08/17 11:25:39;;;;;;;8.60;4.50;;;;;;;;;;5049675;28;20085;-59
2022/08/17 11:28:13;;;;;;;8.27;2.97;;;;;;;;;;5104172;28;20270;-59
2022/08/17 11:30:41;;;;;;;6.65;2.00;;;;;;;;;;5105452;28;20131;-59
2022/08/17 11:33:35;;;;;;;8.35;4.13;;;;;;;;;;5105288;28;20040;-59
2022/08/17 11:36:13;;;;;;;12.82;3.17;;;;;;;;;;5082931;28;20062;-60
2022/08/17 11:38:41;;;;;;;13.05;3.47;;;;;;;;;;5105004;28;20074;-60
2022/08/17 11:41:07;;;;;;;5.55;3.28;;;;;;;;;;5104488;28;20044;-59
2022/08/17 11:43:51;;;;;;;8.32;2.83;;;;;;;;;;5105084;28;20113;-58
2022/08/17 11:46:16;;;;;;;5.68;3.50;;;;;;;;;;5104159;28;20068;-58
2022/08/17 11:52:01;;;;;;;7.05;4.10;;;;;;;;;;5104761;28;20062;-64
2022/08/17 11:54:29;;;;;;;19.85;3.92;;;;;;;;;;5012147;28;20042;-62
2022/08/17 11:56:55;;;;;;;11.65;4.68;;;;;;;;;;5105481;28;20059;-62
2022/08/17 11:59:35;;;;;;;10.95;3.33;;;;;;;;;;5105192;28;20043;-61
2022/08/17 12:02:21;;;;;;;3.40;2.53;;;;;;;;;;5104590;28;20048;-63
2022/08/17 12:05:12;;;;;;;6.30;3.42;;;;;;;;;;5087500;28;20164;-63
2022/08/17 12:07:43;;;;;;;7.68;4.35;;;;;;;;;;5074236;28;20084;-62
2022/08/17 12:10:11;;;;;;;6.35;3.38;;;;;;;;;;5105162;28;20102;-62
2022/08/17 12:12:39;;;;;;;4.10;3.67;;;;;;;;;;5107920;28;20450;-63
2022/08/17 12:15:06;;;;;;;4.70;3.10;;;;;;;;;;5108742;28;20044;-63
2022/08/17 12:17:32;;;;;;;10.95;3.65;;;;;;;;;;5108532;28;20503;-63
2022/08/17 12:20:18;;;;;;;5.75;3.47;;;;;;;;;;5109175;28;20050;-63
2022/08/17 12:22:52;;;;;;;14.40;3.55;;;;;;;;;;5106733;28;20359;-63
2022/08/17 12:25:37;;;;;;;6.53;4.28;;;;;;;;;;5108258;28;20631;-62
2022/08/17 12:28:04;;;;;;;11.07;4.40;;;;;;;;;;5107011;28;20047;-62
2022/08/17 12:30:29;;;;;;;10.77;3.42;;;;;;;;;;5105963;28;20048;-62
2022/08/17 12:32:55;;;;;;;3.60;3.17;;;;;;;;;;5108342;28;20042;-62
2022/08/17 12:35:21;;;;;;;3.75;2.75;;;;;;;;;;5108337;28;20378;-62
2022/08/17 12:37:48;;;;;;;11.40;4.90;;;;;;;;;;5108854;28;20043;-62
2022/08/17 12:40:21;;;;;;;9.98;3.63;;;;;;;;;;5107978;28;20123;-63
2022/08/17 12:43:12;;;;;;;5.07;3.13;;;;;;;;;;5106028;28;20043;-62
2022/08/17 12:45:38;;;;;;;7.65;4.50;;;;;;;;;;5102499;28;20136;-62
2022/08/17 12:48:07;;;;;;;15.10;4.05;;;;;;;;;;5108794;28;20081;-62
2022/08/17 12:50:37;;;;;;;3.53;2.20;;;;;;;;;;5108478;28;20047;-62
2022/08/17 12:53:03;;;;;;;2.85;2.03;;;;;;;;;;5107799;28;20040;-62
2022/08/17 12:55:29;;;;;;;9.45;2.30;;;;;;;;;;5108193;28;20095;-63
2022/08/17 12:57:57;;;;;;;12.32;4.97;;;;;;;;;;5108736;28;20064;-62
2022/08/17 13:00:30;;;;;;;5.75;4.55;;;;;;;;;;5108112;28;20040;-63
2022/08/17 13:03:06;;;;;;;10.40;4.18;;;;;;;;;;5081077;28;20396;-62
2022/08/17 13:05:35;;;;;;;3.55;2.67;;;;;;;;;;5107467;28;21103;-63
2022/08/17 13:08:03;;;;;;;4.88;2.45;;;;;;;;;;5108397;28;20052;-62
2022/08/17 13:10:32;;;;;;;11.77;2.90;;;;;;;;;;5107013;28;20079;-62
2022/08/17 13:13:04;;;;;;;9.63;5.93;;;;;;;;;;5105673;28;20571;-63
2022/08/17 13:15:31;;;;;;;3.47;2.47;;;;;;;;;;5108720;28;20048;-63
2022/08/17 13:18:02;;;;;;;8.07;3.30;;;;;;;;;;5107630;28;20139;-62
2022/08/17 13:20:28;;;;;;;7.32;3.42;;;;;;;;;;5107726;28;20094;-63
2022/08/17 13:22:56;;;;;;;4.65;3.13;;;;;;;;;;5105844;28;20486;-63
2022/08/17 13:25:22;;;;;;;3.63;2.53;;;;;;;;;;5107533;28;20043;-62
2022/08/17 13:27:49;;;;;;;9.57;4.25;;;;;;;;;;5107329;28;20529;-62
2022/08/17 13:30:19;;;;;;;13.70;4.15;;;;;;;;;;5106077;28;20059;-62
2022/08/17 13:32:47;;;;;;;6.40;2.90;;;;;;;;;;5106623;28;20157;-62
2022/08/17 13:35:31;;;;;;;3.15;2.22;;;;;;;;;;5107330;28;20664;-63
2022/08/17 13:38:00;;;;;;;8.82;2.67;;;;;;;;;;5107000;28;20063;-62
2022/08/17 13:40:28;;;;;;;5.50;3.92;;;;;;;;;;5104194;28;20046;-62
2022/08/17 13:42:54;;;;;;;8.23;3.80;;;;;;;;;;5104327;28;20113;-63
2022/08/17 13:45:25;;;;;;;6.72;4.72;;;;;;;;;;5107457;28;20071;-63
2022/08/17 13:48:06;;;;;;;14.77;4.63;;;;;;;;;;5107396;28;20071;-62
2022/08/17 13:50:32;;;;;;;7.00;4.78;;;;;;;;;;5106547;28;20122;-63
2022/08/17 13:52:58;;;;;;;4.20;2.97;;;;;;;;;;5106811;28;20151;-63
2022/08/17 13:55:23;;;;;;;3.38;2.70;;;;;;;;;;5107371;28;20070;-63
2022/08/17 13:57:50;;;;;;;7.22;4.15;;;;;;;;;;5106735;28;20124;-62
2022/08/17 14:00:18;;;;;;;14.75;4.82;;;;;;;;;;5106195;28;20568;-62
2022/08/17 14:02:44;;;;;;;11.70;4.57;;;;;;;;;;5106697;28;20035;-63
2022/08/17 14:05:09;;;;;;;12.25;3.13;;;;;;;;;;5107053;28;20047;-62
2022/08/17 14:07:35;;;;;;;12.05;5.22;;;;;;;;;;5105416;28;20040;-62
2022/08/17 14:10:16;;;;;;;6.90;4.03;;;;;;;;;;5106867;28;20047;-63
2022/08/17 14:12:42;;;;;;;4.65;4.03;;;;;;;;;;5106425;28;20062;-63
2022/08/17 14:15:08;;;;;;;19.23;5.55;;;;;;;;;;5105861;28;20410;-62
2022/08/17 14:17:34;;;;;;;12.48;5.00;;;;;;;;;;5104758;28;20035;-63
2022/08/17 14:19:59;;;;;;;9.45;4.07;;;;;;;;;;5106252;28;20032;-63
2022/08/17 14:22:26;;;;;;;11.52;3.88;;;;;;;;;;5104726;28;20059;-62
2022/08/17 14:24:51;;;;;;;16.20;5.07;;;;;;;;;;5106030;28;20043;-62
2022/08/17 14:27:18;;;;;;;7.63;5.00;;;;;;;;;;5106629;28;20035;-63
2022/08/17 14:29:43;;;;;;;6.72;4.35;;;;;;;;;;5107464;28;20568;-63
2022/08/17 14:32:19;;;;;;;6.40;4.05;;;;;;;;;;5105852;28;20056;-63
2022/08/17 14:34:45;;;;;;;18.52;4.88;;;;;;;;;;5103835;28;20117;-63
2022/08/17 14:37:11;;;;;;;9.40;5.80;;;;;;;;;;5106092;28;20451;-63
2022/08/17 14:39:36;;;;;;;13.13;4.45;;;;;;;;;;5105555;28;20089;-63
2022/08/17 14:42:02;;;;;;;7.60;4.68;;;;;;;;;;5107322;28;20036;-61
2022/08/17 14:44:27;;;;;;;8.93;5.72;;;;;;;;;;5106377;28;20051;-63
2022/08/17 14:46:52;;;;;;;7.63;4.88;;;;;;;;;;5105969;28;20256;-63
2022/08/17 14:49:19;;;;;;;5.15;4.38;;;;;;;;;;5105774;28;20160;-63
2022/08/17 14:51:45;;;;;;;11.25;4.75;;;;;;;;;;5106853;28;20539;-63
2022/08/17 14:54:11;;;;;;;8.32;5.03;;;;;;;;;;5105353;28;20047;-63
2022/08/17 14:56:37;;;;;;;13.30;4.55;;;;;;;;;;5105582;28;20036;-62
2022/08/17 14:59:02;;;;;;;7.93;5.28;;;;;;;;;;5106609;28;20047;-63
2022/08/17 15:01:28;;;;;;;10.07;6.88;;;;;;;;;;5106851;28;20066;-63
2022/08/17 15:03:53;;;;;;;8.73;6.13;;;;;;;;;;5104578;28;20043;-63
2022/08/17 15:06:19;;;;;;;16.70;6.65;;;;;;;;;;5105924;28;20051;-63
2022/08/17 15:08:45;;;;;;;10.68;6.45;;;;;;;;;;5104597;28;20522;-63
2022/08/17 15:11:13;;;;;;;18.00;7.78;;;;;;;;;;5105211;28;20062;-63
2022/08/17 15:13:39;;;;;;;5.38;4.15;;;;;;;;;;5104955;28;20544;-64
2022/08/17 15:16:07;;;;;;;7.85;4.30;;;;;;;;;;5104959;28;20066;-63
2022/08/17 15:18:32;;;;;;;16.27;6.38;;;;;;;;;;5104217;28;20054;-63